WetterOnline ( https://www.wetteronline.de )

Wetter aktuell Norderney

Aktuelles Wetter: Norderney (16m)

6-stündlich | Neueste Meldungen
Ortszeit Temperatur Wetter
Sa, 13.07. 8:00 15.2° C bewölkt
Sa, 13.07. 2:00 15.4° C Regen
Fr, 12.07. 20:00 14.7° C Regen
Fr, 12.07. 14:00 16.0° C leichter Regen
Fr, 12.07. 8:00 15.7° C bedeckt
Fr, 12.07. 2:00 16.1° C bedeckt
Do, 11.07. 20:00 17.5° C leicht bewölkt
Do, 11.07. 14:00 18.3° C bewölkt
Ortszeit Temperatur Wetter
Sa, 13.07. 11:30 16.6° C Sprühregen
Sa, 13.07. 11:20 16.6° C Sprühregen
Sa, 13.07. 11:10 16.7° C bewölkt
Sa, 13.07. 11:00 16.3° C bewölkt
Sa, 13.07. 10:50 16.3° C bewölkt
Sa, 13.07. 10:40 16.1° C bewölkt
Sa, 13.07. 10:30 16.1° C bedeckt
Sa, 13.07. 10:00 15.4° C bedeckt
Sa, 13.07. 9:30 15.6° C bedeckt
Sa, 13.07. 9:00 15.6° C bedeckt
Sa, 13.07. 8:30 15.4° C bewölkt
Ortszeit Relative Feuchte Sichtweite
Sa, 13.07. 8:00 87% 21 km
Sa, 13.07. 2:00 97% 3.6 km
Fr, 12.07. 20:00 96% 2.3 km
Fr, 12.07. 14:00 81% 12 km
Fr, 12.07. 8:00 74% 45 km
Fr, 12.07. 2:00 77% 22 km
Do, 11.07. 20:00 78% 50 km
Do, 11.07. 14:00 77% 40 km
Ortszeit Relative Feuchte Sichtweite
Sa, 13.07. 11:30 79% >70 km
Sa, 13.07. 11:20 79% -
Sa, 13.07. 11:10 78% -
Sa, 13.07. 11:00 80% >70 km
Sa, 13.07. 10:50 80% -
Sa, 13.07. 10:40 82% -
Sa, 13.07. 10:30 85% 50 km
Sa, 13.07. 10:00 88% 24 km
Sa, 13.07. 9:30 89% 45 km
Sa, 13.07. 9:00 85% 55 km
Sa, 13.07. 8:30 87% 30 km
Ortszeit Niederschlagsmenge Niederschlagsart
Sa, 13.07. 8:00 7 l/m2 in 12 Std. Regen
Sa, 13.07. 2:00 5 l/m2 in 6 Std. Regen, Niederschlag
Fr, 12.07. 20:00 30 l/m2 in 12 Std. Regen
Fr, 12.07. 14:00 0.1 l/m2 in 6 Std. Regen
Fr, 12.07. 8:00 0.0 l/m2 in 12 Std. -
Fr, 12.07. 2:00 0.0 l/m2 in 6 Std. -
Do, 11.07. 20:00 0.0 l/m2 in 12 Std. -
Do, 11.07. 14:00 0.0 l/m2 in 6 Std. -
Ortszeit Niederschlagsmenge Niederschlagsart
Sa, 13.07. 11:30 <0.05 l/m2 in 30 Min -
Sa, 13.07. 11:20 keine Meldung -
Sa, 13.07. 11:10 keine Meldung -
Sa, 13.07. 11:00 <0.05 l/m2 in 1 Std. Regen
Sa, 13.07. 10:50 keine Meldung -
Sa, 13.07. 10:40 keine Meldung -
Sa, 13.07. 10:30 <0.05 l/m2 in 30 Min Schneeregen
Sa, 13.07. 10:00 <0.05 l/m2 in 1 Std. Regen
Sa, 13.07. 9:30 <0.05 l/m2 in 30 Min Schneeregen
Sa, 13.07. 9:00 <0.05 l/m2 in 1 Std. Regen
Sa, 13.07. 8:30 0.0 l/m2 in 30 Min -
Ortszeit Stärke Spitze Richtung
km/h Bft. km/h Grad Sektor
Sa, 13.07. 8:00 28 4 61 240° SW
Sa, 13.07. 2:00 41 6 69 280° W
Fr, 12.07. 20:00 56 7 69 340° N
Fr, 12.07. 14:00 28 4 37 20° N
Fr, 12.07. 8:00 11 2 25 340° N
Fr, 12.07. 2:00 17 3 31 310° NW
Do, 11.07. 20:00 22 4 33 280° W
Do, 11.07. 14:00 26 4 33 280° W
Ortszeit Stärke Spitze Richtung
km/h Bft. km/h Grad Sektor
Sa, 13.07. 11:30 24 4 39 220° SW
Sa, 13.07. 11:20 24 4 - 220° SW
Sa, 13.07. 11:10 24 4 - 230° SW
Sa, 13.07. 11:00 29 5 43 220° SW
Sa, 13.07. 10:50 29 5 - 220° SW
Sa, 13.07. 10:40 25 4 - 220° SW
Sa, 13.07. 10:30 28 4 43 230° SW
Sa, 13.07. 10:00 25 4 40 230° SW
Sa, 13.07. 9:30 24 4 35 220° SW
Sa, 13.07. 9:00 25 4 43 230° SW
Sa, 13.07. 8:30 25 4 43 240° SW
Ortszeit Untergrenze Bedeckung Gattung
total tief tief mittel hoch
Sa, 13.07. 8:00 360 m 7/8 7/8 - - -
Sa, 13.07. 2:00 150 m 7/8 7/8 - - -
Fr, 12.07. 20:00 180 m 8/8 8/8 - - -
Fr, 12.07. 14:00 570 m 8/8 7/8 - - -
Fr, 12.07. 8:00 600 m 8/8 8/8 - - -
Fr, 12.07. 2:00 510 m 8/8 8/8 - - -
Do, 11.07. 20:00 450 m 3/8 3/8 - - -
Do, 11.07. 14:00 1500 m 7/8 7/8 - - -
Ortszeit Bedeckungsgrad in Achtel und Wolkenuntergrenze
Sa, 13.07. 11:30 6(450m) 7(720m) 8(2400m)
Sa, 13.07. 11:20 6(450m) 7(720m) 8(2400m)
Sa, 13.07. 11:10 7
Sa, 13.07. 11:00 4(360m) 7(870m) 7(1470m)
Sa, 13.07. 10:50 4(360m) 7(870m) 7(1470m)
Sa, 13.07. 10:40 7
Sa, 13.07. 10:30 2(300m) 7(780m) 8(1500m)
Sa, 13.07. 10:00 1(360m) 7(780m) 8(1410m)
Sa, 13.07. 9:30 1(30m) 7(540m) 8(1800m)
Sa, 13.07. 9:00 5(450m) 7(600m) 8(810m)
Sa, 13.07. 8:30 2(360m) 7(510m) 7(1050m)
Ortszeit Luftdruck NN (hPa) Tendenz (hPa in 3 Std.)
Sa, 13.07. 8:00 1006 + 0,4
Sa, 13.07. 2:00 1006 + 0,1
Fr, 12.07. 20:00 1007 - 2,0
Fr, 12.07. 14:00 1012 - 1,7
Fr, 12.07. 8:00 1015 - 1,0
Fr, 12.07. 2:00 1017 - 0,1
Do, 11.07. 20:00 1017 + 0,1
Do, 11.07. 14:00 1017 + 0,7
Ortszeit Luftdruck NN (hPa) Tendenz (hPa in 3 Std.)
Sa, 13.07. 11:30 1007 + 0,7
Sa, 13.07. 11:20 1007 keine Meldung
Sa, 13.07. 11:10 1007 keine Meldung
Sa, 13.07. 11:00 1007 + 1,0
Sa, 13.07. 10:50 1007 keine Meldung
Sa, 13.07. 10:40 1007 keine Meldung
Sa, 13.07. 10:30 1007 + 0,6
Sa, 13.07. 10:00 1007 + 0,7
Sa, 13.07. 9:30 1007 + 0,7
Sa, 13.07. 9:00 1007 + 0,8
Sa, 13.07. 8:30 1006 + 0,6
Ortszeit Schneehöhe (cm)
Sa, 13.07. 8:00 0
Sa, 13.07. 2:00 0
Fr, 12.07. 20:00 0
Fr, 12.07. 14:00 0
Fr, 12.07. 8:00 0
Fr, 12.07. 2:00 0
Do, 11.07. 20:00 0
Do, 11.07. 14:00 0
Ortszeit Schneehöhe (cm)
Sa, 13.07. 11:30 0
Sa, 13.07. 11:20 0
Sa, 13.07. 11:10 -
Sa, 13.07. 11:00 0
Sa, 13.07. 10:50 0
Sa, 13.07. 10:40 -
Sa, 13.07. 10:30 0
Sa, 13.07. 10:00 0
Sa, 13.07. 9:30 0
Sa, 13.07. 9:00 0
Sa, 13.07. 8:30 0
Link zu dieser Seite / Seite empfehlen

Das Wetter in ...